sensor_id;sensor_type;location;lat;lon;timestamp;temperature;humidity
55777;DHT22;54079;44.540;18.784;2023-03-26T00:00:57;7.30;99.90
55777;DHT22;54079;44.540;18.784;2023-03-26T00:03:24;7.30;99.90
55777;DHT22;54079;44.540;18.784;2023-03-26T00:06:10;7.30;99.90
55777;DHT22;54079;44.540;18.784;2023-03-26T00:08:39;7.30;99.90
55777;DHT22;54079;44.540;18.784;2023-03-26T00:11:08;7.20;99.90
55777;DHT22;54079;44.540;18.784;2023-03-26T00:13:34;7.30;99.90
55777;DHT22;54079;44.540;18.784;2023-03-26T00:16:01;7.30;99.90
55777;DHT22;54079;44.540;18.784;2023-03-26T00:18:28;7.20;99.90
55777;DHT22;54079;44.540;18.784;2023-03-26T00:21:01;7.20;99.90
55777;DHT22;54079;44.540;18.784;2023-03-26T00:23:29;7.20;99.90
55777;DHT22;54079;44.540;18.784;2023-03-26T00:25:55;7.30;99.90
55777;DHT22;54079;44.540;18.784;2023-03-26T00:28:23;7.20;99.90
55777;DHT22;54079;44.540;18.784;2023-03-26T00:30:55;7.30;99.90
55777;DHT22;54079;44.540;18.784;2023-03-26T00:33:22;7.30;99.90
55777;DHT22;54079;44.540;18.784;2023-03-26T00:35:54;7.30;99.90
55777;DHT22;54079;44.540;18.784;2023-03-26T00:38:24;7.30;99.90
55777;DHT22;54079;44.540;18.784;2023-03-26T00:40:51;7.50;99.90
55777;DHT22;54079;44.540;18.784;2023-03-26T00:43:18;7.70;99.90
55777;DHT22;54079;44.540;18.784;2023-03-26T00:45:46;7.90;99.90
55777;DHT22;54079;44.540;18.784;2023-03-26T00:48:13;7.80;99.90
55777;DHT22;54079;44.540;18.784;2023-03-26T00:50:39;7.70;99.90
55777;DHT22;54079;44.540;18.784;2023-03-26T00:53:06;7.60;99.90
55777;DHT22;54079;44.540;18.784;2023-03-26T00:55:34;7.50;99.90
55777;DHT22;54079;44.540;18.784;2023-03-26T00:58:00;7.50;99.90
55777;DHT22;54079;44.540;18.784;2023-03-26T01:00:32;7.30;99.90
55777;DHT22;54079;44.540;18.784;2023-03-26T01:03:00;7.20;99.90
55777;DHT22;54079;44.540;18.784;2023-03-26T01:10:45;6.90;99.90
55777;DHT22;54079;44.540;18.784;2023-03-26T01:13:20;6.90;99.90
55777;DHT22;54079;44.540;18.784;2023-03-26T01:15:47;6.90;99.90
55777;DHT22;54079;44.540;18.784;2023-03-26T01:18:24;6.80;99.90
55777;DHT22;54079;44.540;18.784;2023-03-26T01:20:53;6.80;99.90
55777;DHT22;54079;44.540;18.784;2023-03-26T01:24:17;7.00;99.90
55777;DHT22;54079;44.540;18.784;2023-03-26T01:26:34;7.10;99.90
55777;DHT22;54079;44.540;18.784;2023-03-26T01:29:03;7.20;99.90
55777;DHT22;54079;44.540;18.784;2023-03-26T01:37:03;7.30;99.90
55777;DHT22;54079;44.540;18.784;2023-03-26T01:39:48;7.10;99.90
55777;DHT22;54079;44.540;18.784;2023-03-26T01:42:44;7.00;99.90
55777;DHT22;54079;44.540;18.784;2023-03-26T01:45:15;7.00;99.90
55777;DHT22;54079;44.540;18.784;2023-03-26T01:47:44;6.80;99.90
55777;DHT22;54079;44.540;18.784;2023-03-26T01:50:11;6.70;99.90
55777;DHT22;54079;44.540;18.784;2023-03-26T01:52:37;6.70;99.90
55777;DHT22;54079;44.540;18.784;2023-03-26T01:55:04;6.60;99.90
55777;DHT22;54079;44.540;18.784;2023-03-26T02:03:07;6.50;99.90
55777;DHT22;54079;44.540;18.784;2023-03-26T02:06:12;6.60;99.90
55777;DHT22;54079;44.540;18.784;2023-03-26T02:09:02;6.40;99.90
55777;DHT22;54079;44.540;18.784;2023-03-26T02:11:30;6.50;99.90
55777;DHT22;54079;44.540;18.784;2023-03-26T02:13:57;6.40;99.90
55777;DHT22;54079;44.540;18.784;2023-03-26T02:16:23;6.30;99.90
55777;DHT22;54079;44.540;18.784;2023-03-26T02:18:49;6.30;99.90
55777;DHT22;54079;44.540;18.784;2023-03-26T02:21:22;6.30;99.90
55777;DHT22;54079;44.540;18.784;2023-03-26T02:23:55;6.30;99.90
55777;DHT22;54079;44.540;18.784;2023-03-26T02:26:31;6.30;99.90
55777;DHT22;54079;44.540;18.784;2023-03-26T02:28:59;6.20;99.90
55777;DHT22;54079;44.540;18.784;2023-03-26T02:31:26;6.20;99.90
55777;DHT22;54079;44.540;18.784;2023-03-26T02:33:55;6.10;99.90
55777;DHT22;54079;44.540;18.784;2023-03-26T02:36:21;6.20;99.90
55777;DHT22;54079;44.540;18.784;2023-03-26T02:38:52;6.40;99.90
55777;DHT22;54079;44.540;18.784;2023-03-26T02:41:18;6.50;99.90
55777;DHT22;54079;44.540;18.784;2023-03-26T02:43:44;6.50;99.90
55777;DHT22;54079;44.540;18.784;2023-03-26T02:46:10;6.60;99.90
55777;DHT22;54079;44.540;18.784;2023-03-26T02:48:36;6.50;99.90
55777;DHT22;54079;44.540;18.784;2023-03-26T02:51:02;6.50;99.90
55777;DHT22;54079;44.540;18.784;2023-03-26T02:53:29;6.50;99.90
55777;DHT22;54079;44.540;18.784;2023-03-26T02:55:56;6.30;99.90
55777;DHT22;54079;44.540;18.784;2023-03-26T02:58:22;6.30;99.90
55777;DHT22;54079;44.540;18.784;2023-03-26T03:00:51;6.30;99.90
55777;DHT22;54079;44.540;18.784;2023-03-26T03:03:23;6.30;99.90
55777;DHT22;54079;44.540;18.784;2023-03-26T03:05:50;6.40;99.90
55777;DHT22;54079;44.540;18.784;2023-03-26T03:08:17;6.50;99.90
55777;DHT22;54079;44.540;18.784;2023-03-26T03:13:23;6.40;99.90
55777;DHT22;54079;44.540;18.784;2023-03-26T03:15:49;6.40;99.90
55777;DHT22;54079;44.540;18.784;2023-03-26T03:18:14;6.40;99.90
55777;DHT22;54079;44.540;18.784;2023-03-26T03:20:40;6.20;99.90
55777;DHT22;54079;44.540;18.784;2023-03-26T03:23:06;6.10;99.90
55777;DHT22;54079;44.540;18.784;2023-03-26T03:25:32;6.10;99.90
55777;DHT22;54079;44.540;18.784;2023-03-26T03:27:58;6.20;99.90
55777;DHT22;54079;44.540;18.784;2023-03-26T03:30:24;6.20;99.90
55777;DHT22;54079;44.540;18.784;2023-03-26T03:32:50;6.20;99.90
55777;DHT22;54079;44.540;18.784;2023-03-26T03:35:16;6.10;99.90
55777;DHT22;54079;44.540;18.784;2023-03-26T03:37:42;6.00;99.90
55777;DHT22;54079;44.540;18.784;2023-03-26T03:40:08;6.00;99.90
55777;DHT22;54079;44.540;18.784;2023-03-26T03:42:36;6.10;99.90
55777;DHT22;54079;44.540;18.784;2023-03-26T03:45:05;6.00;99.90
55777;DHT22;54079;44.540;18.784;2023-03-26T03:47:32;6.00;99.90
55777;DHT22;54079;44.540;18.784;2023-03-26T03:49:58;5.90;99.90
55777;DHT22;54079;44.540;18.784;2023-03-26T03:52:25;5.90;99.90
55777;DHT22;54079;44.540;18.784;2023-03-26T03:54:54;5.90;99.90
55777;DHT22;54079;44.540;18.784;2023-03-26T03:57:21;6.00;99.90
55777;DHT22;54079;44.540;18.784;2023-03-26T03:59:47;5.90;99.90
55777;DHT22;54079;44.540;18.784;2023-03-26T04:02:14;6.00;99.90
55777;DHT22;54079;44.540;18.784;2023-03-26T04:04:51;6.00;99.90
55777;DHT22;54079;44.540;18.784;2023-03-26T04:07:17;6.10;99.90
55777;DHT22;54079;44.540;18.784;2023-03-26T04:09:43;6.20;99.90
55777;DHT22;54079;44.540;18.784;2023-03-26T04:12:09;6.30;99.90
55777;DHT22;54079;44.540;18.784;2023-03-26T04:14:35;6.20;99.90
55777;DHT22;54079;44.540;18.784;2023-03-26T04:17:01;6.10;99.90
55777;DHT22;54079;44.540;18.784;2023-03-26T04:19:30;6.20;99.90
55777;DHT22;54079;44.540;18.784;2023-03-26T04:21:56;6.20;99.90
55777;DHT22;54079;44.540;18.784;2023-03-26T04:24:28;6.10;99.90
55777;DHT22;54079;44.540;18.784;2023-03-26T04:26:56;6.30;99.90
55777;DHT22;54079;44.540;18.784;2023-03-26T04:29:29;6.50;99.90
55777;DHT22;54079;44.540;18.784;2023-03-26T04:31:57;6.60;99.90
55777;DHT22;54079;44.540;18.784;2023-03-26T04:34:24;6.70;99.90
55777;DHT22;54079;44.540;18.784;2023-03-26T04:36:51;6.80;99.90
55777;DHT22;54079;44.540;18.784;2023-03-26T04:39:19;6.80;99.90
55777;DHT22;54079;44.540;18.784;2023-03-26T04:41:54;6.90;99.90
55777;DHT22;54079;44.540;18.784;2023-03-26T04:44:20;7.00;99.90
55777;DHT22;54079;44.540;18.784;2023-03-26T04:46:50;7.20;99.90
55777;DHT22;54079;44.540;18.784;2023-03-26T04:49:18;7.20;99.90
55777;DHT22;54079;44.540;18.784;2023-03-26T04:51:45;7.30;99.90
55777;DHT22;54079;44.540;18.784;2023-03-26T04:54:13;7.30;99.90
55777;DHT22;54079;44.540;18.784;2023-03-26T04:56:58;7.30;99.90
55777;DHT22;54079;44.540;18.784;2023-03-26T04:59:31;7.40;99.90
55777;DHT22;54079;44.540;18.784;2023-03-26T05:02:01;7.20;99.90
55777;DHT22;54079;44.540;18.784;2023-03-26T05:04:28;7.10;99.90
55777;DHT22;54079;44.540;18.784;2023-03-26T05:06:56;7.20;99.90
55777;DHT22;54079;44.540;18.784;2023-03-26T05:09:26;7.30;99.90
55777;DHT22;54079;44.540;18.784;2023-03-26T05:11:52;7.50;99.90
55777;DHT22;54079;44.540;18.784;2023-03-26T05:14:19;7.60;99.90
55777;DHT22;54079;44.540;18.784;2023-03-26T05:16:46;7.60;99.90
55777;DHT22;54079;44.540;18.784;2023-03-26T05:19:13;7.70;99.90
55777;DHT22;54079;44.540;18.784;2023-03-26T05:21:39;7.70;99.90
55777;DHT22;54079;44.540;18.784;2023-03-26T05:24:06;7.70;99.90
55777;DHT22;54079;44.540;18.784;2023-03-26T05:26:33;7.80;99.90
55777;DHT22;54079;44.540;18.784;2023-03-26T05:28:59;7.90;99.90
55777;DHT22;54079;44.540;18.784;2023-03-26T05:31:27;7.90;99.90
55777;DHT22;54079;44.540;18.784;2023-03-26T05:33:56;7.90;99.90
55777;DHT22;54079;44.540;18.784;2023-03-26T05:36:22;7.80;99.90
55777;DHT22;54079;44.540;18.784;2023-03-26T05:38:49;7.90;99.90
55777;DHT22;54079;44.540;18.784;2023-03-26T05:41:17;7.90;99.90
55777;DHT22;54079;44.540;18.784;2023-03-26T05:43:43;8.10;99.90
55777;DHT22;54079;44.540;18.784;2023-03-26T05:46:13;8.40;99.90
55777;DHT22;54079;44.540;18.784;2023-03-26T05:48:40;8.70;99.90
55777;DHT22;54079;44.540;18.784;2023-03-26T05:51:06;9.00;99.90
55777;DHT22;54079;44.540;18.784;2023-03-26T05:53:32;9.30;99.90
55777;DHT22;54079;44.540;18.784;2023-03-26T05:55:58;9.60;99.90
55777;DHT22;54079;44.540;18.784;2023-03-26T05:58:28;10.00;99.90
55777;DHT22;54079;44.540;18.784;2023-03-26T06:00:59;10.50;99.60
55777;DHT22;54079;44.540;18.784;2023-03-26T06:03:31;10.90;99.00
55777;DHT22;54079;44.540;18.784;2023-03-26T06:05:57;11.20;97.80
55777;DHT22;54079;44.540;18.784;2023-03-26T06:08:23;11.50;97.10
55777;DHT22;54079;44.540;18.784;2023-03-26T06:10:50;11.90;95.40
55777;DHT22;54079;44.540;18.784;2023-03-26T06:13:16;12.20;95.30
55777;DHT22;54079;44.540;18.784;2023-03-26T06:15:43;12.40;93.10
55777;DHT22;54079;44.540;18.784;2023-03-26T06:18:10;12.60;94.60
55777;DHT22;54079;44.540;18.784;2023-03-26T06:20:35;12.60;93.90
55777;DHT22;54079;44.540;18.784;2023-03-26T06:23:02;12.70;93.40
55777;DHT22;54079;44.540;18.784;2023-03-26T06:25:28;12.70;93.20
55777;DHT22;54079;44.540;18.784;2023-03-26T06:27:54;13.00;93.20
55777;DHT22;54079;44.540;18.784;2023-03-26T06:30:19;13.10;92.50
55777;DHT22;54079;44.540;18.784;2023-03-26T06:32:45;13.30;90.60
55777;DHT22;54079;44.540;18.784;2023-03-26T06:35:13;13.50;89.50
55777;DHT22;54079;44.540;18.784;2023-03-26T06:37:38;13.30;90.90
55777;DHT22;54079;44.540;18.784;2023-03-26T06:40:05;13.40;91.80
55777;DHT22;54079;44.540;18.784;2023-03-26T06:42:31;13.60;90.60
55777;DHT22;54079;44.540;18.784;2023-03-26T06:44:57;13.60;90.20
55777;DHT22;54079;44.540;18.784;2023-03-26T06:47:23;13.40;91.50
55777;DHT22;54079;44.540;18.784;2023-03-26T06:49:49;13.50;93.00
55777;DHT22;54079;44.540;18.784;2023-03-26T06:52:15;13.80;92.30
55777;DHT22;54079;44.540;18.784;2023-03-26T06:54:41;13.90;92.30
55777;DHT22;54079;44.540;18.784;2023-03-26T06:57:07;14.20;90.90
55777;DHT22;54079;44.540;18.784;2023-03-26T06:59:33;16.60;85.10
55777;DHT22;54079;44.540;18.784;2023-03-26T07:01:59;19.60;82.80
55777;DHT22;54079;44.540;18.784;2023-03-26T07:04:25;22.50;72.20
55777;DHT22;54079;44.540;18.784;2023-03-26T07:06:50;24.50;68.10
55777;DHT22;54079;44.540;18.784;2023-03-26T07:09:16;26.20;61.50
55777;DHT22;54079;44.540;18.784;2023-03-26T07:11:42;26.50;59.10
55777;DHT22;54079;44.540;18.784;2023-03-26T07:14:08;26.70;57.90
55777;DHT22;54079;44.540;18.784;2023-03-26T07:16:34;25.40;57.60
55777;DHT22;54079;44.540;18.784;2023-03-26T07:19:00;25.30;57.80
55777;DHT22;54079;44.540;18.784;2023-03-26T07:21:26;24.40;57.80
55777;DHT22;54079;44.540;18.784;2023-03-26T07:23:52;23.20;58.60
55777;DHT22;54079;44.540;18.784;2023-03-26T07:29:11;21.20;61.30
55777;DHT22;54079;44.540;18.784;2023-03-26T07:31:47;20.40;62.80
55777;DHT22;54079;44.540;18.784;2023-03-26T07:43:02;19.20;65.90
55777;DHT22;54079;44.540;18.784;2023-03-26T07:45:38;19.10;67.80
55777;DHT22;54079;44.540;18.784;2023-03-26T07:48:18;18.90;68.40
55777;DHT22;54079;44.540;18.784;2023-03-26T07:50:46;18.70;68.70
55777;DHT22;54079;44.540;18.784;2023-03-26T07:53:13;18.60;70.10
55777;DHT22;54079;44.540;18.784;2023-03-26T07:55:50;18.60;69.60
55777;DHT22;54079;44.540;18.784;2023-03-26T08:00:53;18.70;69.50
55777;DHT22;54079;44.540;18.784;2023-03-26T08:06:14;19.10;69.40
55777;DHT22;54079;44.540;18.784;2023-03-26T08:22:12;23.30;63.60
55777;DHT22;54079;44.540;18.784;2023-03-26T08:30:21;22.50;62.40
55777;DHT22;54079;44.540;18.784;2023-03-26T08:32:57;21.30;60.70
55777;DHT22;54079;44.540;18.784;2023-03-26T08:35:25;21.00;62.70
55777;DHT22;54079;44.540;18.784;2023-03-26T08:37:53;21.00;65.50
55777;DHT22;54079;44.540;18.784;2023-03-26T08:54:26;26.30;56.10
55777;DHT22;54079;44.540;18.784;2023-03-26T09:05:36;27.00;49.70
55777;DHT22;54079;44.540;18.784;2023-03-26T09:08:26;27.50;47.20
55777;DHT22;54079;44.540;18.784;2023-03-26T09:13:59;28.80;47.80
55777;DHT22;54079;44.540;18.784;2023-03-26T09:36:52;20.90;51.80
55777;DHT22;54079;44.540;18.784;2023-03-26T09:39:41;20.50;53.40
55777;DHT22;54079;44.540;18.784;2023-03-26T09:59:53;19.50;54.20
55777;DHT22;54079;44.540;18.784;2023-03-26T10:08:29;19.70;58.00
55777;DHT22;54079;44.540;18.784;2023-03-26T10:16:33;19.90;53.80
55777;DHT22;54079;44.540;18.784;2023-03-26T10:28:39;19.20;52.10
55777;DHT22;54079;44.540;18.784;2023-03-26T10:36:21;19.30;53.30
55777;DHT22;54079;44.540;18.784;2023-03-26T10:41:50;19.30;43.30
55777;DHT22;54079;44.540;18.784;2023-03-26T10:44:32;18.90;44.70
55777;DHT22;54079;44.540;18.784;2023-03-26T10:52:17;19.30;45.50
55777;DHT22;54079;44.540;18.784;2023-03-26T10:54:55;19.40;45.50
55777;DHT22;54079;44.540;18.784;2023-03-26T10:57:23;19.70;45.50
55777;DHT22;54079;44.540;18.784;2023-03-26T10:59:53;19.60;48.20
55777;DHT22;54079;44.540;18.784;2023-03-26T11:02:29;19.80;44.70
55777;DHT22;54079;44.540;18.784;2023-03-26T11:05:18;20.10;47.20
55777;DHT22;54079;44.540;18.784;2023-03-26T11:07:55;20.80;48.40
55777;DHT22;54079;44.540;18.784;2023-03-26T11:15:41;21.30;47.20
55777;DHT22;54079;44.540;18.784;2023-03-26T11:23:48;21.50;45.60
55777;DHT22;54079;44.540;18.784;2023-03-26T11:29:00;21.20;47.90
55777;DHT22;54079;44.540;18.784;2023-03-26T11:31:36;21.50;47.50
55777;DHT22;54079;44.540;18.784;2023-03-26T11:34:15;21.40;48.30
55777;DHT22;54079;44.540;18.784;2023-03-26T11:36:53;21.70;51.40
55777;DHT22;54079;44.540;18.784;2023-03-26T11:39:24;22.00;48.00
55777;DHT22;54079;44.540;18.784;2023-03-26T11:42:14;21.50;47.90
55777;DHT22;54079;44.540;18.784;2023-03-26T11:44:58;21.40;49.20
55777;DHT22;54079;44.540;18.784;2023-03-26T11:47:30;21.60;48.70
55777;DHT22;54079;44.540;18.784;2023-03-26T11:49:59;21.20;47.50
55777;DHT22;54079;44.540;18.784;2023-03-26T11:52:26;21.10;49.10
55777;DHT22;54079;44.540;18.784;2023-03-26T11:54:52;21.00;49.80
55777;DHT22;54079;44.540;18.784;2023-03-26T11:57:21;20.80;49.20
55777;DHT22;54079;44.540;18.784;2023-03-26T12:00:17;20.90;48.70
55777;DHT22;54079;44.540;18.784;2023-03-26T12:02:46;21.00;51.60
55777;DHT22;54079;44.540;18.784;2023-03-26T12:05:22;20.70;48.40
55777;DHT22;54079;44.540;18.784;2023-03-26T12:07:58;20.40;49.20
55777;DHT22;54079;44.540;18.784;2023-03-26T12:12:57;20.30;49.90
55777;DHT22;54079;44.540;18.784;2023-03-26T12:15:23;20.40;50.10
55777;DHT22;54079;44.540;18.784;2023-03-26T12:17:53;20.50;49.70
55777;DHT22;54079;44.540;18.784;2023-03-26T12:22:57;20.60;53.10
55777;DHT22;54079;44.540;18.784;2023-03-26T12:25:26;20.80;52.00
55777;DHT22;54079;44.540;18.784;2023-03-26T12:28:17;20.90;52.00
55777;DHT22;54079;44.540;18.784;2023-03-26T12:31:04;21.00;49.70
55777;DHT22;54079;44.540;18.784;2023-03-26T12:33:33;20.70;49.40
55777;DHT22;54079;44.540;18.784;2023-03-26T12:36:22;20.70;50.60
55777;DHT22;54079;44.540;18.784;2023-03-26T12:38:51;20.80;50.30
55777;DHT22;54079;44.540;18.784;2023-03-26T12:41:19;21.10;53.50
55777;DHT22;54079;44.540;18.784;2023-03-26T12:43:50;21.20;52.90
55777;DHT22;54079;44.540;18.784;2023-03-26T12:49:03;21.00;49.60
55777;DHT22;54079;44.540;18.784;2023-03-26T12:51:53;20.80;51.00
55777;DHT22;54079;44.540;18.784;2023-03-26T12:54:43;21.00;51.20
55777;DHT22;54079;44.540;18.784;2023-03-26T12:57:22;21.00;50.40
55777;DHT22;54079;44.540;18.784;2023-03-26T13:03:05;20.80;51.30
55777;DHT22;54079;44.540;18.784;2023-03-26T13:05:43;21.00;53.80
55777;DHT22;54079;44.540;18.784;2023-03-26T13:08:40;21.10;50.60
55777;DHT22;54079;44.540;18.784;2023-03-26T13:19:12;21.10;53.50
55777;DHT22;54079;44.540;18.784;2023-03-26T13:24:40;21.20;50.20
55777;DHT22;54079;44.540;18.784;2023-03-26T13:27:40;21.30;50.70
55777;DHT22;54079;44.540;18.784;2023-03-26T13:30:35;21.60;53.60
55777;DHT22;54079;44.540;18.784;2023-03-26T13:36:15;21.60;51.70
55777;DHT22;54079;44.540;18.784;2023-03-26T13:39:02;21.70;49.80
55777;DHT22;54079;44.540;18.784;2023-03-26T13:47:30;22.40;50.10
55777;DHT22;54079;44.540;18.784;2023-03-26T13:52:47;22.60;49.00
55777;DHT22;54079;44.540;18.784;2023-03-26T13:55:29;22.50;49.60
55777;DHT22;54079;44.540;18.784;2023-03-26T14:01:15;23.20;50.50
55777;DHT22;54079;44.540;18.784;2023-03-26T14:06:56;23.10;50.50
55777;DHT22;54079;44.540;18.784;2023-03-26T14:09:43;23.20;49.70
55777;DHT22;54079;44.540;18.784;2023-03-26T14:15:13;22.60;49.20
55777;DHT22;54079;44.540;18.784;2023-03-26T14:23:51;22.40;48.70
55777;DHT22;54079;44.540;18.784;2023-03-26T14:34:40;22.30;50.20
55777;DHT22;54079;44.540;18.784;2023-03-26T14:54:03;22.50;51.40
55777;DHT22;54079;44.540;18.784;2023-03-26T15:02:21;22.00;50.10
55777;DHT22;54079;44.540;18.784;2023-03-26T15:05:37;21.90;49.80
55777;DHT22;54079;44.540;18.784;2023-03-26T15:17:07;21.90;50.40
55777;DHT22;54079;44.540;18.784;2023-03-26T15:19:46;21.80;53.20
55777;DHT22;54079;44.540;18.784;2023-03-26T15:39:42;20.30;53.20
55777;DHT22;54079;44.540;18.784;2023-03-26T15:42:30;20.30;53.90
55777;DHT22;54079;44.540;18.784;2023-03-26T15:48:19;20.40;52.30
55777;DHT22;54079;44.540;18.784;2023-03-26T16:01:46;20.80;54.00
55777;DHT22;54079;44.540;18.784;2023-03-26T16:10:08;20.40;52.90
55777;DHT22;54079;44.540;18.784;2023-03-26T16:15:59;20.10;53.70
55777;DHT22;54079;44.540;18.784;2023-03-26T16:18:56;19.90;54.80
55777;DHT22;54079;44.540;18.784;2023-03-26T16:24:07;19.50;54.80
55777;DHT22;54079;44.540;18.784;2023-03-26T16:27:03;19.30;54.60
55777;DHT22;54079;44.540;18.784;2023-03-26T16:29:34;19.30;54.90
55777;DHT22;54079;44.540;18.784;2023-03-26T16:32:35;19.30;55.20
55777;DHT22;54079;44.540;18.784;2023-03-26T16:37:42;19.20;55.10
55777;DHT22;54079;44.540;18.784;2023-03-26T16:51:20;18.30;56.60
55777;DHT22;54079;44.540;18.784;2023-03-26T16:54:00;18.10;56.10
55777;DHT22;54079;44.540;18.784;2023-03-26T16:57:00;18.00;58.10
55777;DHT22;54079;44.540;18.784;2023-03-26T17:02:29;17.80;57.20
55777;DHT22;54079;44.540;18.784;2023-03-26T17:10:41;17.50;57.90
55777;DHT22;54079;44.540;18.784;2023-03-26T17:13:27;17.40;58.10
55777;DHT22;54079;44.540;18.784;2023-03-26T17:16:20;17.40;58.20
55777;DHT22;54079;44.540;18.784;2023-03-26T17:21:34;17.30;58.70
55777;DHT22;54079;44.540;18.784;2023-03-26T17:24:44;17.30;58.80
55777;DHT22;54079;44.540;18.784;2023-03-26T17:30:03;17.10;59.10
55777;DHT22;54079;44.540;18.784;2023-03-26T17:35:38;17.00;59.70
55777;DHT22;54079;44.540;18.784;2023-03-26T17:40:52;17.00;60.10
55777;DHT22;54079;44.540;18.784;2023-03-26T17:54:47;17.00;60.20
55777;DHT22;54079;44.540;18.784;2023-03-26T17:59:57;16.90;59.80
55777;DHT22;54079;44.540;18.784;2023-03-26T18:02:55;16.80;60.00
55777;DHT22;54079;44.540;18.784;2023-03-26T18:05:25;16.80;60.80
55777;DHT22;54079;44.540;18.784;2023-03-26T18:19:02;16.90;61.30
55777;DHT22;54079;44.540;18.784;2023-03-26T18:21:33;16.90;61.90
55777;DHT22;54079;44.540;18.784;2023-03-26T18:24:02;16.90;60.50
55777;DHT22;54079;44.540;18.784;2023-03-26T18:26:41;16.90;61.10
55777;DHT22;54079;44.540;18.784;2023-03-26T18:29:20;16.90;60.90
55777;DHT22;54079;44.540;18.784;2023-03-26T18:31:58;16.90;60.50
55777;DHT22;54079;44.540;18.784;2023-03-26T18:34:32;16.90;60.20
55777;DHT22;54079;44.540;18.784;2023-03-26T18:39:26;16.80;60.70
55777;DHT22;54079;44.540;18.784;2023-03-26T18:41:52;16.80;60.60
55777;DHT22;54079;44.540;18.784;2023-03-26T18:44:18;16.70;60.10
55777;DHT22;54079;44.540;18.784;2023-03-26T18:46:45;16.60;61.00
55777;DHT22;54079;44.540;18.784;2023-03-26T18:49:13;16.50;60.90
55777;DHT22;54079;44.540;18.784;2023-03-26T18:51:41;16.40;61.10
55777;DHT22;54079;44.540;18.784;2023-03-26T18:54:11;16.30;60.40
55777;DHT22;54079;44.540;18.784;2023-03-26T18:56:40;16.10;60.60
55777;DHT22;54079;44.540;18.784;2023-03-26T19:01:54;15.90;61.20
55777;DHT22;54079;44.540;18.784;2023-03-26T19:04:29;15.90;62.10
55777;DHT22;54079;44.540;18.784;2023-03-26T19:06:59;15.80;62.10
55777;DHT22;54079;44.540;18.784;2023-03-26T19:09:27;15.70;63.40
55777;DHT22;54079;44.540;18.784;2023-03-26T19:11:56;15.60;61.90
55777;DHT22;54079;44.540;18.784;2023-03-26T19:14:22;15.60;63.40
55777;DHT22;54079;44.540;18.784;2023-03-26T19:16:59;15.60;63.30
55777;DHT22;54079;44.540;18.784;2023-03-26T19:19:32;15.60;63.70
55777;DHT22;54079;44.540;18.784;2023-03-26T19:22:02;15.60;62.20
55777;DHT22;54079;44.540;18.784;2023-03-26T19:24:29;15.60;64.20
55777;DHT22;54079;44.540;18.784;2023-03-26T19:26:55;15.60;63.30
55777;DHT22;54079;44.540;18.784;2023-03-26T19:29:28;15.60;63.30
55777;DHT22;54079;44.540;18.784;2023-03-26T19:32:49;15.60;62.00
55777;DHT22;54079;44.540;18.784;2023-03-26T19:34:50;15.60;62.20
55777;DHT22;54079;44.540;18.784;2023-03-26T19:37:21;15.50;62.40
55777;DHT22;54079;44.540;18.784;2023-03-26T19:39:52;15.60;62.30
55777;DHT22;54079;44.540;18.784;2023-03-26T19:42:24;15.60;62.50
55777;DHT22;54079;44.540;18.784;2023-03-26T19:44:52;15.60;62.80
55777;DHT22;54079;44.540;18.784;2023-03-26T19:47:25;15.60;61.50
55777;DHT22;54079;44.540;18.784;2023-03-26T19:49:59;15.60;61.90
55777;DHT22;54079;44.540;18.784;2023-03-26T19:52:33;15.60;61.10
55777;DHT22;54079;44.540;18.784;2023-03-26T19:55:14;15.60;61.10
55777;DHT22;54079;44.540;18.784;2023-03-26T19:57:43;15.60;61.40
55777;DHT22;54079;44.540;18.784;2023-03-26T20:00:10;15.60;62.10
55777;DHT22;54079;44.540;18.784;2023-03-26T20:02:40;15.70;60.80
55777;DHT22;54079;44.540;18.784;2023-03-26T20:05:17;15.60;61.40
55777;DHT22;54079;44.540;18.784;2023-03-26T20:07:45;15.60;62.10
55777;DHT22;54079;44.540;18.784;2023-03-26T20:10:11;15.50;61.70
55777;DHT22;54079;44.540;18.784;2023-03-26T20:12:37;15.50;60.70
55777;DHT22;54079;44.540;18.784;2023-03-26T20:15:16;15.50;61.60
55777;DHT22;54079;44.540;18.784;2023-03-26T20:17:42;15.50;61.10
55777;DHT22;54079;44.540;18.784;2023-03-26T20:20:09;15.40;61.70
55777;DHT22;54079;44.540;18.784;2023-03-26T20:22:38;15.30;61.20
55777;DHT22;54079;44.540;18.784;2023-03-26T20:27:44;15.30;61.80
55777;DHT22;54079;44.540;18.784;2023-03-26T20:30:12;15.30;61.30
55777;DHT22;54079;44.540;18.784;2023-03-26T20:32:40;15.30;61.20
55777;DHT22;54079;44.540;18.784;2023-03-26T20:35:21;15.20;61.80
55777;DHT22;54079;44.540;18.784;2023-03-26T20:37:48;15.20;61.80
55777;DHT22;54079;44.540;18.784;2023-03-26T20:40:15;15.20;62.20
55777;DHT22;54079;44.540;18.784;2023-03-26T20:42:43;15.20;62.20
55777;DHT22;54079;44.540;18.784;2023-03-26T20:45:18;15.20;62.60
55777;DHT22;54079;44.540;18.784;2023-03-26T20:47:46;15.20;61.40
55777;DHT22;54079;44.540;18.784;2023-03-26T20:50:16;15.20;62.70
55777;DHT22;54079;44.540;18.784;2023-03-26T20:52:42;15.20;62.10
55777;DHT22;54079;44.540;18.784;2023-03-26T20:55:13;15.10;61.70
55777;DHT22;54079;44.540;18.784;2023-03-26T20:57:40;15.10;61.90
55777;DHT22;54079;44.540;18.784;2023-03-26T21:00:09;15.00;61.90
55777;DHT22;54079;44.540;18.784;2023-03-26T21:02:51;14.90;62.10
55777;DHT22;54079;44.540;18.784;2023-03-26T21:05:21;14.90;63.10
55777;DHT22;54079;44.540;18.784;2023-03-26T21:07:51;15.00;62.30
55777;DHT22;54079;44.540;18.784;2023-03-26T21:10:17;15.10;61.70
55777;DHT22;54079;44.540;18.784;2023-03-26T21:15:13;15.20;61.50
55777;DHT22;54079;44.540;18.784;2023-03-26T21:17:39;15.10;62.00
55777;DHT22;54079;44.540;18.784;2023-03-26T21:20:06;15.10;62.40
55777;DHT22;54079;44.540;18.784;2023-03-26T21:23:01;15.10;61.70
55777;DHT22;54079;44.540;18.784;2023-03-26T21:30:43;15.10;62.30
55777;DHT22;54079;44.540;18.784;2023-03-26T21:33:09;15.00;62.30
55777;DHT22;54079;44.540;18.784;2023-03-26T21:35:35;15.00;63.00
55777;DHT22;54079;44.540;18.784;2023-03-26T21:38:04;15.00;62.60
55777;DHT22;54079;44.540;18.784;2023-03-26T21:40:31;15.00;62.10
55777;DHT22;54079;44.540;18.784;2023-03-26T21:42:57;14.90;62.20
55777;DHT22;54079;44.540;18.784;2023-03-26T21:45:23;14.90;61.90
55777;DHT22;54079;44.540;18.784;2023-03-26T21:47:50;14.90;62.50
55777;DHT22;54079;44.540;18.784;2023-03-26T21:50:18;15.00;62.70
55777;DHT22;54079;44.540;18.784;2023-03-26T21:52:46;14.90;62.80
55777;DHT22;54079;44.540;18.784;2023-03-26T21:55:17;15.00;61.60
55777;DHT22;54079;44.540;18.784;2023-03-26T22:00:34;15.20;61.80
55777;DHT22;54079;44.540;18.784;2023-03-26T22:03:24;15.20;61.70
55777;DHT22;54079;44.540;18.784;2023-03-26T22:06:12;15.20;61.90